sensor_id;sensor_type;location;lat;lon;timestamp;P1;durP1;ratioP1;P2;durP2;ratioP2
59008;SDS011;44794;42.652;23.318;2022-09-09T00:04:21;24.48;;;19.65;;
59008;SDS011;44794;42.652;23.318;2022-09-09T00:09:52;25.13;;;19.77;;
59008;SDS011;44794;42.652;23.318;2022-09-09T00:12:36;22.63;;;19.35;;
59008;SDS011;44794;42.652;23.318;2022-09-09T00:15:26;27.27;;;19.17;;
59008;SDS011;44794;42.652;23.318;2022-09-09T00:18:05;27.95;;;20.73;;
59008;SDS011;44794;42.652;23.318;2022-09-09T00:21:27;25.20;;;19.52;;
59008;SDS011;44794;42.652;23.318;2022-09-09T00:23:42;23.65;;;19.10;;
59008;SDS011;44794;42.652;23.318;2022-09-09T00:31:37;23.88;;;20.35;;
59008;SDS011;44794;42.652;23.318;2022-09-09T00:34:20;25.30;;;20.38;;
59008;SDS011;44794;42.652;23.318;2022-09-09T00:36:49;23.30;;;20.10;;
59008;SDS011;44794;42.652;23.318;2022-09-09T00:39:39;23.23;;;20.45;;
59008;SDS011;44794;42.652;23.318;2022-09-09T00:42:11;24.63;;;20.50;;
59008;SDS011;44794;42.652;23.318;2022-09-09T00:44:38;26.48;;;20.88;;
59008;SDS011;44794;42.652;23.318;2022-09-09T00:58:13;28.90;;;20.58;;
59008;SDS011;44794;42.652;23.318;2022-09-09T01:00:43;25.33;;;20.48;;
59008;SDS011;44794;42.652;23.318;2022-09-09T01:03:20;25.95;;;20.48;;
59008;SDS011;44794;42.652;23.318;2022-09-09T01:06:20;25.52;;;20.35;;
59008;SDS011;44794;42.652;23.318;2022-09-09T01:11:24;23.48;;;19.58;;
59008;SDS011;44794;42.652;23.318;2022-09-09T01:14:10;23.25;;;19.42;;
59008;SDS011;44794;42.652;23.318;2022-09-09T01:16:43;26.60;;;20.73;;
59008;SDS011;44794;42.652;23.318;2022-09-09T01:19:10;26.30;;;19.50;;
59008;SDS011;44794;42.652;23.318;2022-09-09T01:21:49;24.45;;;19.23;;
59008;SDS011;44794;42.652;23.318;2022-09-09T01:24:38;28.35;;;19.75;;
59008;SDS011;44794;42.652;23.318;2022-09-09T01:27:08;27.17;;;19.58;;
59008;SDS011;44794;42.652;23.318;2022-09-09T01:29:35;24.63;;;20.00;;
59008;SDS011;44794;42.652;23.318;2022-09-09T01:32:02;24.98;;;19.58;;
59008;SDS011;44794;42.652;23.318;2022-09-09T01:35:02;25.27;;;20.77;;
59008;SDS011;44794;42.652;23.318;2022-09-09T01:37:28;25.63;;;19.35;;
59008;SDS011;44794;42.652;23.318;2022-09-09T01:39:54;25.02;;;20.25;;
59008;SDS011;44794;42.652;23.318;2022-09-09T01:42:19;27.08;;;19.75;;
59008;SDS011;44794;42.652;23.318;2022-09-09T01:44:45;26.25;;;19.88;;
59008;SDS011;44794;42.652;23.318;2022-09-09T01:47:10;25.92;;;20.90;;
59008;SDS011;44794;42.652;23.318;2022-09-09T01:49:36;26.08;;;20.15;;
59008;SDS011;44794;42.652;23.318;2022-09-09T01:52:01;28.67;;;20.65;;
59008;SDS011;44794;42.652;23.318;2022-09-09T01:54:28;27.48;;;20.20;;
59008;SDS011;44794;42.652;23.318;2022-09-09T02:04:38;25.73;;;20.10;;
59008;SDS011;44794;42.652;23.318;2022-09-09T02:07:13;28.88;;;21.10;;
59008;SDS011;44794;42.652;23.318;2022-09-09T02:09:47;26.05;;;20.08;;
59008;SDS011;44794;42.652;23.318;2022-09-09T02:12:21;25.70;;;20.63;;
59008;SDS011;44794;42.652;23.318;2022-09-09T02:14:51;27.50;;;21.23;;
59008;SDS011;44794;42.652;23.318;2022-09-09T02:17:24;24.60;;;19.02;;
59008;SDS011;44794;42.652;23.318;2022-09-09T02:20:10;23.50;;;18.05;;
59008;SDS011;44794;42.652;23.318;2022-09-09T02:22:38;24.83;;;19.88;;
59008;SDS011;44794;42.652;23.318;2022-09-09T02:25:08;25.08;;;20.20;;
59008;SDS011;44794;42.652;23.318;2022-09-09T02:27:37;29.85;;;20.77;;
59008;SDS011;44794;42.652;23.318;2022-09-09T02:30:04;26.30;;;21.20;;
59008;SDS011;44794;42.652;23.318;2022-09-09T02:32:30;28.90;;;21.38;;
59008;SDS011;44794;42.652;23.318;2022-09-09T02:35:00;29.85;;;21.50;;
59008;SDS011;44794;42.652;23.318;2022-09-09T02:37:32;26.75;;;22.17;;
59008;SDS011;44794;42.652;23.318;2022-09-09T02:40:03;27.10;;;22.40;;
59008;SDS011;44794;42.652;23.318;2022-09-09T02:42:30;28.15;;;22.13;;
59008;SDS011;44794;42.652;23.318;2022-09-09T02:44:56;28.02;;;20.05;;
59008;SDS011;44794;42.652;23.318;2022-09-09T02:47:26;27.20;;;20.73;;
59008;SDS011;44794;42.652;23.318;2022-09-09T02:55:39;27.83;;;20.90;;
59008;SDS011;44794;42.652;23.318;2022-09-09T02:58:10;27.55;;;20.15;;
59008;SDS011;44794;42.652;23.318;2022-09-09T03:00:42;28.10;;;20.42;;
59008;SDS011;44794;42.652;23.318;2022-09-09T03:03:09;27.20;;;22.17;;
59008;SDS011;44794;42.652;23.318;2022-09-09T03:05:35;25.38;;;19.75;;
59008;SDS011;44794;42.652;23.318;2022-09-09T03:08:02;24.65;;;20.77;;
59008;SDS011;44794;42.652;23.318;2022-09-09T03:10:28;30.05;;;21.52;;
59008;SDS011;44794;42.652;23.318;2022-09-09T03:12:54;30.92;;;23.13;;
59008;SDS011;44794;42.652;23.318;2022-09-09T03:15:20;25.67;;;22.13;;
59008;SDS011;44794;42.652;23.318;2022-09-09T03:17:46;28.75;;;22.52;;
59008;SDS011;44794;42.652;23.318;2022-09-09T03:20:12;31.80;;;22.80;;
59008;SDS011;44794;42.652;23.318;2022-09-09T03:22:37;25.38;;;21.27;;
59008;SDS011;44794;42.652;23.318;2022-09-09T03:25:03;24.58;;;21.13;;
59008;SDS011;44794;42.652;23.318;2022-09-09T03:27:29;32.30;;;22.65;;
59008;SDS011;44794;42.652;23.318;2022-09-09T03:29:55;27.98;;;21.92;;
59008;SDS011;44794;42.652;23.318;2022-09-09T03:32:21;28.48;;;23.67;;
59008;SDS011;44794;42.652;23.318;2022-09-09T03:34:47;28.13;;;23.02;;
59008;SDS011;44794;42.652;23.318;2022-09-09T03:37:15;28.27;;;23.55;;
59008;SDS011;44794;42.652;23.318;2022-09-09T03:39:42;27.08;;;23.42;;
59008;SDS011;44794;42.652;23.318;2022-09-09T03:42:08;30.55;;;23.63;;
59008;SDS011;44794;42.652;23.318;2022-09-09T03:44:34;30.17;;;24.52;;
59008;SDS011;44794;42.652;23.318;2022-09-09T03:46:59;29.23;;;24.40;;
59008;SDS011;44794;42.652;23.318;2022-09-09T03:49:28;29.98;;;24.42;;
59008;SDS011;44794;42.652;23.318;2022-09-09T03:51:54;34.00;;;24.55;;
59008;SDS011;44794;42.652;23.318;2022-09-09T03:54:21;32.28;;;25.17;;
59008;SDS011;44794;42.652;23.318;2022-09-09T03:56:47;32.70;;;25.42;;
59008;SDS011;44794;42.652;23.318;2022-09-09T03:59:13;36.13;;;26.95;;
59008;SDS011;44794;42.652;23.318;2022-09-09T04:01:39;34.70;;;26.13;;
59008;SDS011;44794;42.652;23.318;2022-09-09T04:04:05;33.50;;;25.67;;
59008;SDS011;44794;42.652;23.318;2022-09-09T04:06:30;32.75;;;26.38;;
59008;SDS011;44794;42.652;23.318;2022-09-09T04:08:55;32.88;;;26.50;;
59008;SDS011;44794;42.652;23.318;2022-09-09T04:11:21;34.92;;;25.75;;
59008;SDS011;44794;42.652;23.318;2022-09-09T04:13:47;33.75;;;27.77;;
59008;SDS011;44794;42.652;23.318;2022-09-09T04:16:13;31.15;;;25.10;;
59008;SDS011;44794;42.652;23.318;2022-09-09T04:18:39;31.63;;;24.13;;
59008;SDS011;44794;42.652;23.318;2022-09-09T04:21:05;31.33;;;24.92;;
59008;SDS011;44794;42.652;23.318;2022-09-09T04:23:32;35.30;;;25.13;;
59008;SDS011;44794;42.652;23.318;2022-09-09T04:25:59;30.40;;;24.50;;
59008;SDS011;44794;42.652;23.318;2022-09-09T04:28:27;30.73;;;24.60;;
59008;SDS011;44794;42.652;23.318;2022-09-09T04:30:54;32.28;;;24.23;;
59008;SDS011;44794;42.652;23.318;2022-09-09T04:33:20;29.25;;;24.58;;
59008;SDS011;44794;42.652;23.318;2022-09-09T04:35:47;30.45;;;22.88;;
59008;SDS011;44794;42.652;23.318;2022-09-09T04:38:14;32.58;;;23.70;;
59008;SDS011;44794;42.652;23.318;2022-09-09T04:40:44;31.33;;;22.58;;
59008;SDS011;44794;42.652;23.318;2022-09-09T04:43:11;30.08;;;23.08;;
59008;SDS011;44794;42.652;23.318;2022-09-09T04:45:39;32.03;;;23.55;;
59008;SDS011;44794;42.652;23.318;2022-09-09T04:48:05;31.25;;;22.73;;
59008;SDS011;44794;42.652;23.318;2022-09-09T04:50:31;31.75;;;24.95;;
59008;SDS011;44794;42.652;23.318;2022-09-09T04:52:59;27.13;;;20.48;;
59008;SDS011;44794;42.652;23.318;2022-09-09T04:55:25;34.20;;;21.75;;
59008;SDS011;44794;42.652;23.318;2022-09-09T04:57:51;32.08;;;23.33;;
59008;SDS011;44794;42.652;23.318;2022-09-09T05:00:16;33.15;;;20.83;;
59008;SDS011;44794;42.652;23.318;2022-09-09T05:02:42;39.08;;;21.38;;
59008;SDS011;44794;42.652;23.318;2022-09-09T05:05:08;36.85;;;21.55;;
59008;SDS011;44794;42.652;23.318;2022-09-09T05:07:33;31.52;;;20.83;;
59008;SDS011;44794;42.652;23.318;2022-09-09T05:09:59;29.35;;;20.52;;
59008;SDS011;44794;42.652;23.318;2022-09-09T05:12:24;29.85;;;19.60;;
59008;SDS011;44794;42.652;23.318;2022-09-09T05:14:53;32.90;;;19.23;;
59008;SDS011;44794;42.652;23.318;2022-09-09T05:17:18;26.42;;;19.40;;
59008;SDS011;44794;42.652;23.318;2022-09-09T05:19:44;26.90;;;20.90;;
59008;SDS011;44794;42.652;23.318;2022-09-09T05:22:09;33.88;;;21.20;;
59008;SDS011;44794;42.652;23.318;2022-09-09T05:24:37;30.80;;;21.15;;
59008;SDS011;44794;42.652;23.318;2022-09-09T05:27:03;40.58;;;21.73;;
59008;SDS011;44794;42.652;23.318;2022-09-09T05:29:29;59.60;;;21.92;;
59008;SDS011;44794;42.652;23.318;2022-09-09T05:31:54;39.28;;;21.23;;
59008;SDS011;44794;42.652;23.318;2022-09-09T05:34:19;42.63;;;21.35;;
59008;SDS011;44794;42.652;23.318;2022-09-09T05:36:45;35.05;;;20.73;;
59008;SDS011;44794;42.652;23.318;2022-09-09T05:39:11;30.42;;;18.52;;
59008;SDS011;44794;42.652;23.318;2022-09-09T05:41:37;32.90;;;17.73;;
59008;SDS011;44794;42.652;23.318;2022-09-09T05:44:02;31.40;;;17.33;;
59008;SDS011;44794;42.652;23.318;2022-09-09T05:46:28;27.80;;;16.55;;
59008;SDS011;44794;42.652;23.318;2022-09-09T05:48:54;20.77;;;14.77;;
59008;SDS011;44794;42.652;23.318;2022-09-09T05:51:20;23.23;;;14.07;;
59008;SDS011;44794;42.652;23.318;2022-09-09T05:53:47;24.90;;;13.77;;
59008;SDS011;44794;42.652;23.318;2022-09-09T05:56:14;25.05;;;13.45;;
59008;SDS011;44794;42.652;23.318;2022-09-09T05:58:44;24.80;;;13.18;;
59008;SDS011;44794;42.652;23.318;2022-09-09T06:01:30;27.90;;;13.60;;
59008;SDS011;44794;42.652;23.318;2022-09-09T06:03:58;17.48;;;11.35;;
59008;SDS011;44794;42.652;23.318;2022-09-09T06:06:24;14.45;;;11.27;;
59008;SDS011;44794;42.652;23.318;2022-09-09T06:08:52;18.95;;;11.10;;
59008;SDS011;44794;42.652;23.318;2022-09-09T06:11:20;14.63;;;10.70;;
59008;SDS011;44794;42.652;23.318;2022-09-09T06:13:47;14.73;;;10.27;;
59008;SDS011;44794;42.652;23.318;2022-09-09T06:16:13;18.30;;;9.98;;
59008;SDS011;44794;42.652;23.318;2022-09-09T06:18:41;14.57;;;10.10;;
59008;SDS011;44794;42.652;23.318;2022-09-09T06:21:09;15.57;;;9.90;;
59008;SDS011;44794;42.652;23.318;2022-09-09T06:23:46;16.48;;;9.50;;
59008;SDS011;44794;42.652;23.318;2022-09-09T06:28:49;19.73;;;10.45;;
59008;SDS011;44794;42.652;23.318;2022-09-09T06:31:16;18.33;;;9.82;;
59008;SDS011;44794;42.652;23.318;2022-09-09T06:33:46;13.02;;;9.07;;
59008;SDS011;44794;42.652;23.318;2022-09-09T06:36:14;14.63;;;9.40;;
59008;SDS011;44794;42.652;23.318;2022-09-09T06:38:41;13.77;;;9.35;;
59008;SDS011;44794;42.652;23.318;2022-09-09T06:41:08;21.48;;;9.18;;
59008;SDS011;44794;42.652;23.318;2022-09-09T06:43:35;11.15;;;8.55;;
59008;SDS011;44794;42.652;23.318;2022-09-09T06:46:01;14.07;;;9.38;;
59008;SDS011;44794;42.652;23.318;2022-09-09T06:48:31;15.20;;;9.38;;
59008;SDS011;44794;42.652;23.318;2022-09-09T06:51:04;17.83;;;8.88;;
59008;SDS011;44794;42.652;23.318;2022-09-09T06:53:32;18.45;;;9.85;;
59008;SDS011;44794;42.652;23.318;2022-09-09T06:55:59;17.92;;;9.68;;
59008;SDS011;44794;42.652;23.318;2022-09-09T06:58:27;30.92;;;11.35;;
59008;SDS011;44794;42.652;23.318;2022-09-09T07:01:01;20.50;;;10.73;;
59008;SDS011;44794;42.652;23.318;2022-09-09T07:03:30;19.50;;;10.85;;
59008;SDS011;44794;42.652;23.318;2022-09-09T07:05:56;26.13;;;12.18;;
59008;SDS011;44794;42.652;23.318;2022-09-09T07:08:22;15.65;;;10.13;;
59008;SDS011;44794;42.652;23.318;2022-09-09T07:10:48;21.08;;;11.27;;
59008;SDS011;44794;42.652;23.318;2022-09-09T07:13:14;24.88;;;11.88;;
59008;SDS011;44794;42.652;23.318;2022-09-09T07:15:40;19.63;;;10.98;;
59008;SDS011;44794;42.652;23.318;2022-09-09T07:18:06;16.42;;;11.00;;
59008;SDS011;44794;42.652;23.318;2022-09-09T07:20:34;15.68;;;10.25;;
59008;SDS011;44794;42.652;23.318;2022-09-09T07:23:00;13.95;;;10.43;;
59008;SDS011;44794;42.652;23.318;2022-09-09T07:25:25;14.68;;;10.80;;
59008;SDS011;44794;42.652;23.318;2022-09-09T07:27:53;19.55;;;11.43;;
59008;SDS011;44794;42.652;23.318;2022-09-09T07:30:19;34.33;;;11.70;;
59008;SDS011;44794;42.652;23.318;2022-09-09T07:32:46;18.98;;;11.38;;
59008;SDS011;44794;42.652;23.318;2022-09-09T07:35:11;28.88;;;12.07;;
59008;SDS011;44794;42.652;23.318;2022-09-09T07:37:37;32.95;;;11.50;;
59008;SDS011;44794;42.652;23.318;2022-09-09T07:40:03;27.15;;;10.63;;
59008;SDS011;44794;42.652;23.318;2022-09-09T07:42:30;14.32;;;10.90;;
59008;SDS011;44794;42.652;23.318;2022-09-09T07:44:55;16.58;;;10.75;;
59008;SDS011;44794;42.652;23.318;2022-09-09T07:47:21;18.42;;;10.85;;
59008;SDS011;44794;42.652;23.318;2022-09-09T07:49:46;14.40;;;10.77;;
59008;SDS011;44794;42.652;23.318;2022-09-09T07:52:14;16.60;;;11.57;;
59008;SDS011;44794;42.652;23.318;2022-09-09T07:54:40;17.40;;;11.68;;
59008;SDS011;44794;42.652;23.318;2022-09-09T07:57:06;16.15;;;12.07;;
59008;SDS011;44794;42.652;23.318;2022-09-09T07:59:32;14.05;;;11.20;;
59008;SDS011;44794;42.652;23.318;2022-09-09T08:01:58;17.40;;;10.85;;
59008;SDS011;44794;42.652;23.318;2022-09-09T08:04:24;19.75;;;11.63;;
59008;SDS011;44794;42.652;23.318;2022-09-09T08:06:58;13.73;;;12.27;;
59008;SDS011;44794;42.652;23.318;2022-09-09T08:09:26;19.52;;;11.75;;
59008;SDS011;44794;42.652;23.318;2022-09-09T08:11:54;13.25;;;10.48;;
59008;SDS011;44794;42.652;23.318;2022-09-09T08:14:21;15.75;;;9.90;;
59008;SDS011;44794;42.652;23.318;2022-09-09T08:16:48;15.65;;;10.32;;
59008;SDS011;44794;42.652;23.318;2022-09-09T08:19:15;14.77;;;10.07;;
59008;SDS011;44794;42.652;23.318;2022-09-09T08:21:43;14.00;;;9.68;;
59008;SDS011;44794;42.652;23.318;2022-09-09T08:24:10;18.50;;;10.55;;
59008;SDS011;44794;42.652;23.318;2022-09-09T08:26:37;21.13;;;10.20;;
59008;SDS011;44794;42.652;23.318;2022-09-09T08:29:07;18.00;;;9.82;;
59008;SDS011;44794;42.652;23.318;2022-09-09T08:31:37;12.77;;;9.15;;
59008;SDS011;44794;42.652;23.318;2022-09-09T08:34:04;11.93;;;9.13;;
59008;SDS011;44794;42.652;23.318;2022-09-09T08:36:32;18.27;;;9.88;;
59008;SDS011;44794;42.652;23.318;2022-09-09T08:39:00;14.75;;;8.88;;
59008;SDS011;44794;42.652;23.318;2022-09-09T08:55:21;15.13;;;8.05;;
59008;SDS011;44794;42.652;23.318;2022-09-09T08:57:51;13.57;;;9.25;;
59008;SDS011;44794;42.652;23.318;2022-09-09T09:00:19;15.10;;;8.65;;
59008;SDS011;44794;42.652;23.318;2022-09-09T09:02:54;11.02;;;8.75;;
59008;SDS011;44794;42.652;23.318;2022-09-09T09:05:33;9.93;;;8.35;;
59008;SDS011;44794;42.652;23.318;2022-09-09T09:10:49;14.82;;;7.97;;
59008;SDS011;44794;42.652;23.318;2022-09-09T09:16:07;9.68;;;8.23;;
59008;SDS011;44794;42.652;23.318;2022-09-09T09:18:43;10.83;;;7.80;;
59008;SDS011;44794;42.652;23.318;2022-09-09T09:26:47;14.80;;;8.45;;
59008;SDS011;44794;42.652;23.318;2022-09-09T09:29:14;16.05;;;7.80;;
59008;SDS011;44794;42.652;23.318;2022-09-09T09:31:43;14.15;;;8.48;;
59008;SDS011;44794;42.652;23.318;2022-09-09T09:34:13;14.93;;;8.20;;
59008;SDS011;44794;42.652;23.318;2022-09-09T09:36:42;13.18;;;8.07;;
59008;SDS011;44794;42.652;23.318;2022-09-09T09:39:21;10.63;;;7.95;;
59008;SDS011;44794;42.652;23.318;2022-09-09T09:46:48;13.10;;;8.10;;
59008;SDS011;44794;42.652;23.318;2022-09-09T09:49:13;12.68;;;8.00;;
59008;SDS011;44794;42.652;23.318;2022-09-09T09:51:39;11.57;;;7.93;;
59008;SDS011;44794;42.652;23.318;2022-09-09T09:56:44;10.70;;;7.80;;
59008;SDS011;44794;42.652;23.318;2022-09-09T10:02:19;11.07;;;7.43;;
59008;SDS011;44794;42.652;23.318;2022-09-09T10:04:59;11.93;;;7.82;;
59008;SDS011;44794;42.652;23.318;2022-09-09T10:07:26;12.98;;;7.70;;
59008;SDS011;44794;42.652;23.318;2022-09-09T10:09:55;11.02;;;8.00;;
59008;SDS011;44794;42.652;23.318;2022-09-09T10:18:02;34.30;;;19.48;;
59008;SDS011;44794;42.652;23.318;2022-09-09T10:20:58;13.77;;;8.10;;
59008;SDS011;44794;42.652;23.318;2022-09-09T10:34:55;19.85;;;8.57;;
59008;SDS011;44794;42.652;23.318;2022-09-09T10:40:32;16.55;;;8.73;;
59008;SDS011;44794;42.652;23.318;2022-09-09T10:43:12;14.52;;;8.50;;
59008;SDS011;44794;42.652;23.318;2022-09-09T10:46:17;16.85;;;8.07;;
59008;SDS011;44794;42.652;23.318;2022-09-09T10:49:00;13.90;;;8.50;;
59008;SDS011;44794;42.652;23.318;2022-09-09T11:00:15;13.25;;;9.00;;
59008;SDS011;44794;42.652;23.318;2022-09-09T11:02:58;16.73;;;9.52;;
59008;SDS011;44794;42.652;23.318;2022-09-09T11:08:20;19.10;;;9.18;;
59008;SDS011;44794;42.652;23.318;2022-09-09T11:18:55;13.57;;;9.10;;
59008;SDS011;44794;42.652;23.318;2022-09-09T11:21:29;19.10;;;9.85;;
59008;SDS011;44794;42.652;23.318;2022-09-09T11:24:04;14.43;;;10.10;;
59008;SDS011;44794;42.652;23.318;2022-09-09T11:26:43;13.73;;;10.65;;
59008;SDS011;44794;42.652;23.318;2022-09-09T11:29:26;16.45;;;10.90;;
59008;SDS011;44794;42.652;23.318;2022-09-09T11:41:01;19.42;;;11.05;;
59008;SDS011;44794;42.652;23.318;2022-09-09T11:43:32;15.20;;;10.65;;
59008;SDS011;44794;42.652;23.318;2022-09-09T11:46:04;18.92;;;11.18;;
59008;SDS011;44794;42.652;23.318;2022-09-09T11:53:33;18.60;;;11.30;;
59008;SDS011;44794;42.652;23.318;2022-09-09T11:58:33;21.45;;;11.63;;
59008;SDS011;44794;42.652;23.318;2022-09-09T12:01:25;17.08;;;11.02;;
59008;SDS011;44794;42.652;23.318;2022-09-09T12:06:45;15.25;;;9.80;;
59008;SDS011;44794;42.652;23.318;2022-09-09T12:11:52;19.75;;;10.68;;
59008;SDS011;44794;42.652;23.318;2022-09-09T12:16:47;23.42;;;12.02;;
59008;SDS011;44794;42.652;23.318;2022-09-09T12:19:14;16.65;;;10.90;;
59008;SDS011;44794;42.652;23.318;2022-09-09T12:30:15;17.08;;;11.10;;
59008;SDS011;44794;42.652;23.318;2022-09-09T12:32:42;20.40;;;11.50;;
59008;SDS011;44794;42.652;23.318;2022-09-09T12:40:21;22.33;;;10.98;;
59008;SDS011;44794;42.652;23.318;2022-09-09T12:42:52;15.13;;;10.95;;
59008;SDS011;44794;42.652;23.318;2022-09-09T12:45:21;25.58;;;10.65;;
59008;SDS011;44794;42.652;23.318;2022-09-09T12:50:28;15.95;;;10.40;;
59008;SDS011;44794;42.652;23.318;2022-09-09T12:52:57;20.65;;;11.75;;
59008;SDS011;44794;42.652;23.318;2022-09-09T12:55:27;20.10;;;10.95;;
59008;SDS011;44794;42.652;23.318;2022-09-09T12:57:55;20.83;;;11.13;;
59008;SDS011;44794;42.652;23.318;2022-09-09T13:00:22;19.08;;;10.40;;
59008;SDS011;44794;42.652;23.318;2022-09-09T13:05:16;16.45;;;10.65;;
59008;SDS011;44794;42.652;23.318;2022-09-09T13:07:45;24.20;;;13.43;;
59008;SDS011;44794;42.652;23.318;2022-09-09T13:10:12;18.08;;;11.02;;
59008;SDS011;44794;42.652;23.318;2022-09-09T13:12:39;17.83;;;10.95;;
59008;SDS011;44794;42.652;23.318;2022-09-09T13:15:10;20.98;;;11.07;;
59008;SDS011;44794;42.652;23.318;2022-09-09T13:17:42;21.27;;;11.10;;
59008;SDS011;44794;42.652;23.318;2022-09-09T13:20:15;19.42;;;10.73;;
59008;SDS011;44794;42.652;23.318;2022-09-09T13:22:42;16.90;;;11.13;;
59008;SDS011;44794;42.652;23.318;2022-09-09T13:27:35;19.33;;;11.38;;
59008;SDS011;44794;42.652;23.318;2022-09-09T13:35:31;17.23;;;11.20;;
59008;SDS011;44794;42.652;23.318;2022-09-09T13:37:57;16.45;;;11.13;;
59008;SDS011;44794;42.652;23.318;2022-09-09T13:40:24;17.90;;;11.02;;
59008;SDS011;44794;42.652;23.318;2022-09-09T13:42:56;19.50;;;10.90;;
59008;SDS011;44794;42.652;23.318;2022-09-09T13:45:24;22.42;;;11.10;;
59008;SDS011;44794;42.652;23.318;2022-09-09T13:47:54;20.48;;;11.57;;
59008;SDS011;44794;42.652;23.318;2022-09-09T13:50:21;23.63;;;10.85;;
59008;SDS011;44794;42.652;23.318;2022-09-09T13:52:52;20.40;;;11.15;;
59008;SDS011;44794;42.652;23.318;2022-09-09T13:55:23;25.30;;;11.55;;
59008;SDS011;44794;42.652;23.318;2022-09-09T14:00:20;16.15;;;11.15;;
59008;SDS011;44794;42.652;23.318;2022-09-09T14:02:46;17.50;;;11.45;;
59008;SDS011;44794;42.652;23.318;2022-09-09T14:05:22;20.85;;;11.02;;
59008;SDS011;44794;42.652;23.318;2022-09-09T14:07:48;15.85;;;10.90;;
59008;SDS011;44794;42.652;23.318;2022-09-09T14:10:14;19.13;;;10.90;;
59008;SDS011;44794;42.652;23.318;2022-09-09T14:12:40;16.35;;;11.02;;
59008;SDS011;44794;42.652;23.318;2022-09-09T14:15:06;17.35;;;10.57;;
59008;SDS011;44794;42.652;23.318;2022-09-09T14:17:34;28.48;;;11.35;;
59008;SDS011;44794;42.652;23.318;2022-09-09T14:20:01;20.88;;;11.23;;
59008;SDS011;44794;42.652;23.318;2022-09-09T14:22:34;19.27;;;11.80;;
59008;SDS011;44794;42.652;23.318;2022-09-09T14:25:00;18.73;;;11.80;;
59008;SDS011;44794;42.652;23.318;2022-09-09T14:27:26;17.60;;;10.95;;
59008;SDS011;44794;42.652;23.318;2022-09-09T14:29:51;19.02;;;10.60;;
59008;SDS011;44794;42.652;23.318;2022-09-09T14:32:17;22.25;;;11.60;;
59008;SDS011;44794;42.652;23.318;2022-09-09T14:34:43;20.83;;;11.18;;
59008;SDS011;44794;42.652;23.318;2022-09-09T14:37:09;18.73;;;10.80;;
59008;SDS011;44794;42.652;23.318;2022-09-09T14:39:34;19.42;;;10.68;;
59008;SDS011;44794;42.652;23.318;2022-09-09T14:41:59;13.52;;;10.20;;
59008;SDS011;44794;42.652;23.318;2022-09-09T14:44:25;16.17;;;9.93;;
59008;SDS011;44794;42.652;23.318;2022-09-09T14:46:51;15.90;;;10.55;;
59008;SDS011;44794;42.652;23.318;2022-09-09T14:49:16;18.50;;;10.65;;
59008;SDS011;44794;42.652;23.318;2022-09-09T14:51:42;22.52;;;11.27;;
59008;SDS011;44794;42.652;23.318;2022-09-09T14:54:07;23.60;;;12.68;;
59008;SDS011;44794;42.652;23.318;2022-09-09T14:56:33;20.25;;;11.80;;
59008;SDS011;44794;42.652;23.318;2022-09-09T14:58:59;18.92;;;10.30;;
59008;SDS011;44794;42.652;23.318;2022-09-09T15:01:26;18.13;;;11.30;;
59008;SDS011;44794;42.652;23.318;2022-09-09T15:03:53;21.58;;;10.93;;
59008;SDS011;44794;42.652;23.318;2022-09-09T15:06:20;18.08;;;9.98;;
59008;SDS011;44794;42.652;23.318;2022-09-09T15:08:47;21.95;;;10.77;;
59008;SDS011;44794;42.652;23.318;2022-09-09T15:11:13;22.00;;;10.95;;
59008;SDS011;44794;42.652;23.318;2022-09-09T15:13:40;18.65;;;10.88;;
59008;SDS011;44794;42.652;23.318;2022-09-09T15:16:08;18.17;;;10.25;;
59008;SDS011;44794;42.652;23.318;2022-09-09T15:18:39;15.32;;;11.00;;
59008;SDS011;44794;42.652;23.318;2022-09-09T15:21:07;14.75;;;11.18;;
59008;SDS011;44794;42.652;23.318;2022-09-09T15:23:44;20.70;;;10.63;;
59008;SDS011;44794;42.652;23.318;2022-09-09T15:26:10;28.15;;;12.70;;
59008;SDS011;44794;42.652;23.318;2022-09-09T15:28:37;25.35;;;11.27;;
59008;SDS011;44794;42.652;23.318;2022-09-09T15:31:05;23.88;;;11.25;;
59008;SDS011;44794;42.652;23.318;2022-09-09T15:33:32;22.52;;;11.48;;
59008;SDS011;44794;42.652;23.318;2022-09-09T15:35:59;20.48;;;11.13;;
59008;SDS011;44794;42.652;23.318;2022-09-09T15:38:24;27.20;;;11.70;;
59008;SDS011;44794;42.652;23.318;2022-09-09T15:40:53;17.88;;;10.38;;
59008;SDS011;44794;42.652;23.318;2022-09-09T15:43:20;18.90;;;11.15;;
59008;SDS011;44794;42.652;23.318;2022-09-09T15:45:48;20.25;;;11.05;;
59008;SDS011;44794;42.652;23.318;2022-09-09T15:48:24;22.73;;;11.73;;
59008;SDS011;44794;42.652;23.318;2022-09-09T15:51:03;18.13;;;11.43;;
59008;SDS011;44794;42.652;23.318;2022-09-09T15:53:30;19.60;;;12.90;;
59008;SDS011;44794;42.652;23.318;2022-09-09T15:55:57;22.33;;;12.40;;
59008;SDS011;44794;42.652;23.318;2022-09-09T15:58:23;23.40;;;11.70;;
59008;SDS011;44794;42.652;23.318;2022-09-09T16:00:48;29.80;;;12.50;;
59008;SDS011;44794;42.652;23.318;2022-09-09T16:03:14;25.85;;;12.90;;
59008;SDS011;44794;42.652;23.318;2022-09-09T16:05:40;24.88;;;11.95;;
59008;SDS011;44794;42.652;23.318;2022-09-09T16:08:06;24.45;;;13.13;;
59008;SDS011;44794;42.652;23.318;2022-09-09T16:10:32;24.80;;;12.90;;
59008;SDS011;44794;42.652;23.318;2022-09-09T16:12:57;17.08;;;12.07;;
59008;SDS011;44794;42.652;23.318;2022-09-09T16:15:23;20.95;;;12.88;;
59008;SDS011;44794;42.652;23.318;2022-09-09T16:17:52;25.33;;;12.50;;
59008;SDS011;44794;42.652;23.318;2022-09-09T16:20:18;24.55;;;13.75;;
59008;SDS011;44794;42.652;23.318;2022-09-09T16:22:44;31.20;;;14.55;;
59008;SDS011;44794;42.652;23.318;2022-09-09T16:25:09;36.88;;;14.18;;
59008;SDS011;44794;42.652;23.318;2022-09-09T16:27:35;20.67;;;13.85;;
59008;SDS011;44794;42.652;23.318;2022-09-09T16:30:01;26.13;;;13.75;;
59008;SDS011;44794;42.652;23.318;2022-09-09T16:32:26;24.45;;;13.75;;
59008;SDS011;44794;42.652;23.318;2022-09-09T16:34:51;25.33;;;13.30;;
59008;SDS011;44794;42.652;23.318;2022-09-09T16:37:17;25.10;;;13.55;;
59008;SDS011;44794;42.652;23.318;2022-09-09T16:39:42;26.55;;;14.13;;
59008;SDS011;44794;42.652;23.318;2022-09-09T16:42:08;27.38;;;14.13;;
59008;SDS011;44794;42.652;23.318;2022-09-09T16:44:34;22.70;;;14.32;;
59008;SDS011;44794;42.652;23.318;2022-09-09T16:46:59;26.70;;;14.57;;
59008;SDS011;44794;42.652;23.318;2022-09-09T16:49:25;26.73;;;14.57;;
59008;SDS011;44794;42.652;23.318;2022-09-09T16:51:52;29.15;;;14.77;;
59008;SDS011;44794;42.652;23.318;2022-09-09T16:54:18;29.23;;;15.05;;
59008;SDS011;44794;42.652;23.318;2022-09-09T16:56:45;24.23;;;14.88;;
59008;SDS011;44794;42.652;23.318;2022-09-09T16:59:13;21.42;;;14.27;;
59008;SDS011;44794;42.652;23.318;2022-09-09T17:01:41;24.50;;;15.07;;
59008;SDS011;44794;42.652;23.318;2022-09-09T17:04:12;28.10;;;15.23;;
59008;SDS011;44794;42.652;23.318;2022-09-09T17:06:41;22.75;;;15.07;;
59008;SDS011;44794;42.652;23.318;2022-09-09T17:09:08;24.45;;;14.48;;
59008;SDS011;44794;42.652;23.318;2022-09-09T17:11:36;31.05;;;15.73;;